createdAt,value
2018-12-20T00:00:44.347Z,8.63
2018-12-20T00:03:12.889Z,6.57
2018-12-20T00:05:41.613Z,8.10
2018-12-20T00:08:10.145Z,10.70
2018-12-20T00:10:38.721Z,6.70
2018-12-20T00:13:07.420Z,8.10
2018-12-20T00:15:35.912Z,8.70
2018-12-20T00:18:04.479Z,8.80
2018-12-20T00:20:33.218Z,10.03
2018-12-20T00:23:01.884Z,9.27
2018-12-20T00:25:30.413Z,8.57
2018-12-20T00:27:59.071Z,16.00
2018-12-20T00:30:27.601Z,10.77
2018-12-20T00:32:56.244Z,6.40
2018-12-20T00:35:24.828Z,5.97
2018-12-20T00:37:53.458Z,7.83
2018-12-20T00:40:22.086Z,8.53
2018-12-20T00:42:50.692Z,12.80
2018-12-20T00:45:19.323Z,9.17
2018-12-20T00:47:48.044Z,10.27
2018-12-20T00:50:16.807Z,10.33
2018-12-20T00:52:45.781Z,12.63
2018-12-20T00:55:14.994Z,9.97
2018-12-20T00:57:43.599Z,8.93
2018-12-20T01:00:12.396Z,13.73
2018-12-20T01:02:41.266Z,10.70
2018-12-20T01:05:09.931Z,10.87
2018-12-20T01:07:38.435Z,11.77
2018-12-20T01:10:07.193Z,12.67
2018-12-20T01:12:35.880Z,10.77
2018-12-20T01:15:05.365Z,8.63
2018-12-20T01:17:39.405Z,11.67
2018-12-20T01:20:09.801Z,9.40
2018-12-20T01:22:38.445Z,6.33
2018-12-20T01:25:07.452Z,10.87
2018-12-20T01:27:36.031Z,7.23
2018-12-20T01:30:06.287Z,11.67
2018-12-20T01:32:34.854Z,8.00
2018-12-20T01:35:04.266Z,8.17
2018-12-20T01:37:33.046Z,8.27
2018-12-20T01:40:01.647Z,8.27
2018-12-20T01:42:30.279Z,10.00
2018-12-20T01:44:59.037Z,11.03
2018-12-20T01:47:27.644Z,9.77
2018-12-20T01:49:56.448Z,9.63
2018-12-20T01:52:24.972Z,7.57
2018-12-20T01:54:53.874Z,7.53
2018-12-20T01:57:22.745Z,11.87
2018-12-20T01:59:51.315Z,8.47
2018-12-20T02:02:19.930Z,8.53
2018-12-20T02:04:48.590Z,11.43
2018-12-20T02:07:17.192Z,9.70
2018-12-20T02:09:45.723Z,8.07
2018-12-20T02:12:14.241Z,11.37
2018-12-20T02:14:43.334Z,9.63
2018-12-20T02:17:12.016Z,9.63
2018-12-20T02:19:41.381Z,9.53
2018-12-20T02:22:09.892Z,12.13
2018-12-20T02:24:38.511Z,10.73
2018-12-20T02:27:07.934Z,8.33
2018-12-20T02:29:36.496Z,9.67
2018-12-20T02:32:05.184Z,12.53
2018-12-20T02:34:33.817Z,10.33
2018-12-20T02:37:02.738Z,11.27
2018-12-20T02:39:31.431Z,12.17
2018-12-20T02:42:00.162Z,10.40
2018-12-20T02:44:28.949Z,14.20
2018-12-20T02:46:57.607Z,15.53
2018-12-20T02:49:26.272Z,9.17
2018-12-20T02:51:55.090Z,15.13
2018-12-20T02:54:24.040Z,12.93
2018-12-20T02:56:52.638Z,14.07
2018-12-20T02:59:21.367Z,13.90
2018-12-20T03:01:49.981Z,13.70
2018-12-20T03:04:18.523Z,10.90
2018-12-20T03:06:47.106Z,13.00
2018-12-20T03:09:15.669Z,11.60
2018-12-20T03:11:44.343Z,12.07
2018-12-20T03:14:13.066Z,9.73
2018-12-20T03:16:41.717Z,14.20
2018-12-20T03:19:10.438Z,15.90
2018-12-20T03:21:39.247Z,18.17
2018-12-20T03:24:07.884Z,9.67
2018-12-20T03:26:36.551Z,11.10
2018-12-20T03:29:05.210Z,11.73
2018-12-20T03:31:33.868Z,9.80
2018-12-20T03:34:02.458Z,12.63
2018-12-20T03:36:31.246Z,17.73
2018-12-20T03:38:59.755Z,10.97
2018-12-20T03:41:28.400Z,11.20
2018-12-20T03:43:57.078Z,15.10
2018-12-20T03:46:25.783Z,19.10
2018-12-20T03:48:54.469Z,14.33
2018-12-20T03:51:23.173Z,14.03
2018-12-20T03:53:51.754Z,13.13
2018-12-20T03:56:20.615Z,13.57
2018-12-20T03:58:49.364Z,12.23
2018-12-20T04:01:17.976Z,9.77
2018-12-20T04:03:46.742Z,11.27
2018-12-20T04:06:15.519Z,14.87
2018-12-20T04:08:44.111Z,13.33
2018-12-20T04:11:12.629Z,10.30
2018-12-20T04:13:41.477Z,13.07
2018-12-20T04:16:10.183Z,16.10
2018-12-20T04:18:39.055Z,13.87
2018-12-20T04:21:07.850Z,11.30
2018-12-20T04:23:36.809Z,14.33
2018-12-20T04:26:05.366Z,12.30
2018-12-20T04:28:33.898Z,12.07
2018-12-20T04:31:02.539Z,14.10
2018-12-20T04:33:31.067Z,13.47
2018-12-20T04:35:59.629Z,10.87
2018-12-20T04:38:28.256Z,15.17
2018-12-20T04:40:57.804Z,11.73
2018-12-20T04:43:26.334Z,12.37
2018-12-20T04:45:54.899Z,11.67
2018-12-20T04:48:23.669Z,14.97
2018-12-20T04:50:52.360Z,10.67
2018-12-20T04:53:21.056Z,10.97
2018-12-20T04:55:49.700Z,11.50
2018-12-20T04:58:18.355Z,13.80
2018-12-20T05:00:46.903Z,9.77
2018-12-20T05:03:15.678Z,9.13
2018-12-20T05:05:47.237Z,9.30
2018-12-20T05:08:16.863Z,8.57
2018-12-20T05:10:45.835Z,13.28
2018-12-20T05:13:15.174Z,12.70
2018-12-20T05:15:55.815Z,12.50
2018-12-20T05:18:18.022Z,9.97
2018-12-20T05:20:46.674Z,13.30
2018-12-20T05:23:15.444Z,11.87
2018-12-20T05:25:46.556Z,10.50
2018-12-20T05:28:15.398Z,7.70
2018-12-20T05:30:44.433Z,13.73
2018-12-20T05:33:18.259Z,12.27
2018-12-20T05:35:47.171Z,11.73
2018-12-20T05:38:15.978Z,15.00
2018-12-20T05:40:44.950Z,10.90
2018-12-20T05:43:13.970Z,12.27
2018-12-20T05:45:42.651Z,8.57
2018-12-20T05:48:11.925Z,10.23
2018-12-20T05:50:40.476Z,10.70
2018-12-20T05:53:08.976Z,10.73
2018-12-20T05:55:37.434Z,13.40
2018-12-20T05:58:06.143Z,12.53
2018-12-20T06:00:34.775Z,11.07
2018-12-20T06:03:03.423Z,16.48
2018-12-20T06:05:32.302Z,11.40
2018-12-20T06:08:01.139Z,14.50
2018-12-20T06:10:30.090Z,12.70
2018-12-20T06:12:58.805Z,11.70
2018-12-20T06:15:27.631Z,15.05
2018-12-20T06:17:56.264Z,12.70
2018-12-20T06:20:24.876Z,15.00
2018-12-20T06:22:53.367Z,12.50
2018-12-20T06:25:21.886Z,12.03
2018-12-20T06:27:50.402Z,10.67
2018-12-20T06:30:18.882Z,8.27
2018-12-20T06:32:47.733Z,11.77
2018-12-20T06:35:16.219Z,11.97
2018-12-20T06:37:44.991Z,11.60
2018-12-20T06:40:13.560Z,11.43
2018-12-20T06:42:42.036Z,9.30
2018-12-20T06:45:10.539Z,12.13
2018-12-20T06:47:39.105Z,11.70
2018-12-20T06:50:07.841Z,12.70
2018-12-20T06:52:36.389Z,11.53
2018-12-20T06:55:05.368Z,13.13
2018-12-20T06:57:33.949Z,11.10
2018-12-20T07:00:03.023Z,9.20
2018-12-20T07:02:31.636Z,14.33
2018-12-20T07:05:00.124Z,15.13
2018-12-20T07:07:28.579Z,11.47
2018-12-20T07:09:57.096Z,17.40
2018-12-20T07:12:25.595Z,12.17
2018-12-20T07:14:54.187Z,10.20
2018-12-20T07:17:22.695Z,11.97
2018-12-20T07:19:51.186Z,14.80
2018-12-20T07:22:21.592Z,14.43
2018-12-20T07:24:50.498Z,13.43
2018-12-20T07:27:19.647Z,13.77
2018-12-20T07:29:48.214Z,20.83
2018-12-20T07:32:24.923Z,13.73
2018-12-20T07:34:47.949Z,19.57
2018-12-20T07:37:16.925Z,11.67
2018-12-20T07:39:45.521Z,20.03
2018-12-20T07:42:14.118Z,14.57
2018-12-20T07:44:42.702Z,14.43
2018-12-20T07:47:11.244Z,21.67
2018-12-20T07:49:39.798Z,16.63
2018-12-20T07:52:08.423Z,14.80
2018-12-20T07:54:37.141Z,12.77
2018-12-20T07:57:05.776Z,12.37
2018-12-20T07:59:35.651Z,16.07
2018-12-20T08:02:10.976Z,16.40
2018-12-20T08:04:39.765Z,20.70
2018-12-20T08:07:08.892Z,17.57
2018-12-20T08:09:37.551Z,20.00
2018-12-20T08:12:06.320Z,19.90
2018-12-20T08:14:34.935Z,13.97
2018-12-20T08:17:03.536Z,16.50
2018-12-20T08:19:36.347Z,20.00
2018-12-20T08:22:02.923Z,16.07
2018-12-20T08:24:31.626Z,17.73
2018-12-20T08:27:00.210Z,14.13
2018-12-20T08:29:28.954Z,19.90
2018-12-20T08:31:57.612Z,15.10
2018-12-20T08:34:26.379Z,16.40
2018-12-20T08:36:55.029Z,21.27
2018-12-20T08:39:23.676Z,18.10
2018-12-20T08:41:52.952Z,17.03
2018-12-20T08:44:22.036Z,15.00
2018-12-20T08:46:54.335Z,15.57
2018-12-20T08:49:21.814Z,14.27
2018-12-20T08:51:50.988Z,12.30
2018-12-20T08:54:19.737Z,14.43
2018-12-20T08:56:49.969Z,13.00
2018-12-20T08:59:19.600Z,11.93
2018-12-20T09:01:49.711Z,15.57
2018-12-20T09:04:34.946Z,12.40
2018-12-20T09:07:03.752Z,10.67
2018-12-20T09:09:33.895Z,15.93
2018-12-20T09:12:03.503Z,11.27
2018-12-20T09:14:32.235Z,10.80
2018-12-20T09:17:03.135Z,11.03
2018-12-20T09:19:35.387Z,10.07
2018-12-20T09:22:05.337Z,11.47
2018-12-20T09:24:34.593Z,17.03
2018-12-20T09:27:03.219Z,10.73
2018-12-20T09:29:32.514Z,9.03
2018-12-20T09:32:02.233Z,13.00
2018-12-20T09:34:31.942Z,10.80
2018-12-20T09:37:02.090Z,11.30
2018-12-20T09:39:31.754Z,10.60
2018-12-20T09:42:00.735Z,8.03
2018-12-20T09:44:29.809Z,8.60
2018-12-20T09:47:11.426Z,8.27
2018-12-20T09:49:34.568Z,11.97
2018-12-20T09:52:07.405Z,12.70
2018-12-20T09:54:37.747Z,11.43
2018-12-20T09:57:07.496Z,11.53
2018-12-20T09:59:36.585Z,9.07
2018-12-20T10:02:05.380Z,6.57
2018-12-20T10:04:34.723Z,8.10
2018-12-20T10:07:05.406Z,7.33
2018-12-20T10:09:34.490Z,12.90
2018-12-20T10:12:05.530Z,7.30
2018-12-20T10:14:34.333Z,10.10
2018-12-20T10:17:04.853Z,6.87
2018-12-20T10:19:34.352Z,8.37
2018-12-20T10:22:04.188Z,6.30
2018-12-20T10:24:34.561Z,9.47
2018-12-20T10:27:04.127Z,11.60
2018-12-20T10:29:33.545Z,9.73
2018-12-20T10:32:04.420Z,8.17
2018-12-20T10:34:35.838Z,8.60
2018-12-20T10:37:06.484Z,8.80
2018-12-20T10:39:35.529Z,8.33
2018-12-20T10:42:04.745Z,9.43
2018-12-20T10:44:35.671Z,7.17
2018-12-20T10:47:10.517Z,7.80
2018-12-20T10:49:40.174Z,9.93
2018-12-20T10:52:08.944Z,11.30
2018-12-20T10:54:38.124Z,9.67
2018-12-20T10:57:08.184Z,6.40
2018-12-20T10:59:37.034Z,9.30
2018-12-20T11:02:11.174Z,6.03
2018-12-20T11:04:45.225Z,13.00
2018-12-20T11:07:19.489Z,6.97
2018-12-20T11:09:54.838Z,7.27
2018-12-20T11:12:30.092Z,7.30
2018-12-20T11:14:59.826Z,8.43
2018-12-20T11:17:37.122Z,9.80
2018-12-20T11:20:00.798Z,9.93
2018-12-20T11:22:32.900Z,7.70
2018-12-20T11:25:02.618Z,8.57
2018-12-20T11:28:24.017Z,7.87
2018-12-20T11:30:54.759Z,7.17
2018-12-20T11:33:27.148Z,10.07
2018-12-20T11:35:59.599Z,12.67
2018-12-20T11:38:29.172Z,12.40
2018-12-20T11:40:59.077Z,9.10
2018-12-20T11:43:28.840Z,8.87
2018-12-20T11:45:59.017Z,9.80
2018-12-20T11:48:27.943Z,10.67
2018-12-20T11:50:57.210Z,9.73
2018-12-20T11:53:27.991Z,9.37
2018-12-20T11:55:58.489Z,7.53
2018-12-20T11:58:28.439Z,9.40
2018-12-20T12:00:57.783Z,6.70
2018-12-20T12:03:27.611Z,5.73
2018-12-20T12:05:57.570Z,7.07
2018-12-20T12:08:27.333Z,7.37
2018-12-20T12:10:56.041Z,11.97
2018-12-20T12:13:24.918Z,7.77
2018-12-20T12:15:53.894Z,5.73
2018-12-20T12:18:23.204Z,9.97
2018-12-20T12:20:55.397Z,6.63
2018-12-20T12:23:24.730Z,9.77
2018-12-20T12:25:54.637Z,8.93
2018-12-20T12:28:23.410Z,9.20
2018-12-20T12:30:52.245Z,9.27
2018-12-20T12:33:22.469Z,8.30
2018-12-20T12:35:52.257Z,9.53
2018-12-20T12:38:20.980Z,9.77
2018-12-20T12:40:49.774Z,11.27
2018-12-20T12:43:18.567Z,15.40
2018-12-20T12:45:47.603Z,9.93
2018-12-20T12:48:18.094Z,10.17
2018-12-20T12:50:48.038Z,6.73
2018-12-20T12:53:17.696Z,8.97
2018-12-20T12:55:46.469Z,11.40
2018-12-20T12:58:15.222Z,8.93
2018-12-20T13:00:46.377Z,5.50
2018-12-20T13:03:15.643Z,11.00
2018-12-20T13:05:44.961Z,8.33
2018-12-20T13:08:16.673Z,14.33
2018-12-20T13:10:47.216Z,5.47
2018-12-20T13:13:18.117Z,9.63
2018-12-20T13:21:01.551Z,4.90
2018-12-20T13:23:33.074Z,4.77
2018-12-20T13:27:30.491Z,5.40
2018-12-20T13:30:03.613Z,8.63
2018-12-20T13:32:38.821Z,6.40
2018-12-20T13:35:08.585Z,11.57
2018-12-20T13:37:39.500Z,5.13
2018-12-20T13:40:10.579Z,7.43
2018-12-20T13:42:41.500Z,9.47
2018-12-20T13:45:11.458Z,10.50
2018-12-20T13:47:53.565Z,8.27
2018-12-20T13:50:25.011Z,8.60
2018-12-20T13:52:56.790Z,9.37
2018-12-20T13:55:29.265Z,4.83
2018-12-20T13:58:01.245Z,10.37
2018-12-20T14:00:31.784Z,6.27
2018-12-20T14:03:01.100Z,5.23
2018-12-20T14:05:30.016Z,5.23
2018-12-20T14:08:01.170Z,7.80
2018-12-20T14:10:30.004Z,6.47
2018-12-20T14:12:59.031Z,7.03
2018-12-20T14:15:30.067Z,7.17
2018-12-20T14:17:59.517Z,8.13
2018-12-20T14:20:30.539Z,8.77
2018-12-20T14:23:01.418Z,5.23
2018-12-20T14:25:30.940Z,5.93
2018-12-20T14:28:02.320Z,7.30
2018-12-20T14:30:31.992Z,8.80
2018-12-20T14:33:01.042Z,8.00
2018-12-20T14:35:31.666Z,7.90
2018-12-20T14:38:04.017Z,6.73
2018-12-20T14:40:33.656Z,6.03
2018-12-20T14:43:02.630Z,4.83
2018-12-20T14:45:31.677Z,5.87
2018-12-20T14:48:00.656Z,4.40
2018-12-20T14:50:29.549Z,6.67
2018-12-20T14:52:58.390Z,9.07
2018-12-20T14:55:28.800Z,8.07
2018-12-20T14:57:58.979Z,5.57
2018-12-20T15:00:29.029Z,8.40
2018-12-20T15:02:58.349Z,7.50
2018-12-20T15:05:27.076Z,11.40
2018-12-20T15:07:57.709Z,9.47
2018-12-20T15:10:26.537Z,6.90
2018-12-20T15:12:56.652Z,7.33
2018-12-20T15:15:25.530Z,6.93
2018-12-20T15:17:55.329Z,5.83
2018-12-20T15:20:24.074Z,6.00
2018-12-20T15:22:52.671Z,5.17
2018-12-20T15:25:21.449Z,5.40
2018-12-20T15:27:50.255Z,9.57
2018-12-20T15:30:20.639Z,6.67
2018-12-20T15:32:49.383Z,9.20
2018-12-20T15:35:18.160Z,6.00
2018-12-20T15:37:47.624Z,8.00
2018-12-20T15:40:16.303Z,7.87
2018-12-20T15:42:44.964Z,7.70
2018-12-20T15:45:13.666Z,8.17
2018-12-20T15:47:42.306Z,10.50
2018-12-20T15:50:12.874Z,9.40
2018-12-20T15:52:45.911Z,8.20
2018-12-20T15:55:15.246Z,6.13
2018-12-20T15:57:44.123Z,10.13
2018-12-20T16:00:14.826Z,13.13
2018-12-20T16:02:43.902Z,9.90
2018-12-20T16:05:13.189Z,9.37
2018-12-20T16:07:42.977Z,10.00
2018-12-20T16:10:12.384Z,10.17
2018-12-20T16:12:41.576Z,12.00
2018-12-20T16:15:11.750Z,9.77
2018-12-20T16:17:41.322Z,8.17
2018-12-20T16:20:10.074Z,10.53
2018-12-20T16:22:39.104Z,10.03
2018-12-20T16:25:08.757Z,8.80
2018-12-20T16:27:40.695Z,10.30
2018-12-20T16:30:12.983Z,10.60
2018-12-20T16:32:48.669Z,11.60
2018-12-20T16:35:20.260Z,12.27
2018-12-20T16:38:05.229Z,18.60
2018-12-20T16:40:34.537Z,15.13
2018-12-20T16:43:06.170Z,10.23
2018-12-20T16:45:37.557Z,12.53
2018-12-20T16:48:09.667Z,12.70
2018-12-20T16:50:38.533Z,11.27
2018-12-20T16:53:09.744Z,11.63
2018-12-20T16:55:41.571Z,12.30
2018-12-20T16:58:12.780Z,11.83
2018-12-20T17:00:46.110Z,13.23
2018-12-20T17:03:15.685Z,13.43
2018-12-20T17:05:45.289Z,17.33
2018-12-20T17:08:16.161Z,16.63
2018-12-20T17:10:47.635Z,17.20
2018-12-20T17:13:16.974Z,15.20
2018-12-20T17:15:47.814Z,18.00
2018-12-20T17:18:17.483Z,17.90
2018-12-20T17:20:49.345Z,14.27
2018-12-20T17:23:35.590Z,18.13
2018-12-20T17:26:02.402Z,18.13
2018-12-20T17:28:33.324Z,17.90
2018-12-20T17:31:04.234Z,13.93
2018-12-20T17:33:34.991Z,15.80
2018-12-20T17:36:03.924Z,21.97
2018-12-20T17:38:35.177Z,16.97
2018-12-20T17:41:04.166Z,17.40
2018-12-20T17:43:35.347Z,19.63
2018-12-20T17:46:06.756Z,19.40
2018-12-20T17:48:37.933Z,17.53
2018-12-20T17:51:10.111Z,21.83
2018-12-20T17:53:39.127Z,19.50
2018-12-20T17:56:10.107Z,15.53
2018-12-20T17:58:38.600Z,21.47
2018-12-20T18:01:07.142Z,22.80
2018-12-20T18:03:35.694Z,19.63
2018-12-20T18:06:04.588Z,24.97
2018-12-20T18:08:33.143Z,20.73
2018-12-20T18:11:01.680Z,20.70
2018-12-20T18:13:30.231Z,21.50
2018-12-20T18:15:58.790Z,22.50
2018-12-20T18:18:27.395Z,24.33
2018-12-20T18:20:56.195Z,25.23
2018-12-20T18:23:24.741Z,26.77
2018-12-20T18:25:53.317Z,24.00
2018-12-20T18:28:23.133Z,29.27
2018-12-20T18:30:54.496Z,25.53
2018-12-20T18:33:24.283Z,29.30
2018-12-20T18:35:53.114Z,22.50
2018-12-20T18:38:21.736Z,22.67
2018-12-20T18:40:50.418Z,24.97
2018-12-20T18:43:19.211Z,19.73
2018-12-20T18:45:48.197Z,23.07
2018-12-20T18:48:16.790Z,28.60
2018-12-20T18:50:45.858Z,23.17
2018-12-20T18:53:14.406Z,27.27
2018-12-20T18:55:43.061Z,24.50
2018-12-20T18:58:11.757Z,23.53
2018-12-20T19:00:40.415Z,23.03
2018-12-20T19:03:09.043Z,32.47
2018-12-20T19:05:37.593Z,21.77
2018-12-20T19:08:06.339Z,20.97
2018-12-20T19:10:34.931Z,21.47
2018-12-20T19:13:03.577Z,22.47
2018-12-20T19:15:32.172Z,19.60
2018-12-20T19:18:00.812Z,22.63
2018-12-20T19:20:29.340Z,23.70
2018-12-20T19:22:57.965Z,19.63
2018-12-20T19:25:26.728Z,26.68
2018-12-20T19:27:55.303Z,22.87
2018-12-20T19:30:23.996Z,25.90
2018-12-20T19:32:52.621Z,21.53
2018-12-20T19:35:21.259Z,25.97
2018-12-20T19:37:49.820Z,27.33
2018-12-20T19:40:18.394Z,17.47
2018-12-20T19:42:47.037Z,31.73
2018-12-20T19:45:15.643Z,25.80
2018-12-20T19:47:44.319Z,26.50
2018-12-20T19:50:12.887Z,23.70
2018-12-20T19:52:41.441Z,26.27
2018-12-20T19:55:09.990Z,26.73
2018-12-20T19:57:38.538Z,27.30
2018-12-20T20:00:11.608Z,25.50
2018-12-20T20:02:40.179Z,25.90
2018-12-20T20:05:08.844Z,23.10
2018-12-20T20:07:37.463Z,24.30
2018-12-20T20:10:08.204Z,25.50
2018-12-20T20:12:36.827Z,19.67
2018-12-20T20:15:16.056Z,18.90
2018-12-20T20:17:38.053Z,22.13
2018-12-20T20:20:13.808Z,21.00
2018-12-20T20:22:37.557Z,25.13
2018-12-20T20:25:07.244Z,23.93
2018-12-20T20:27:35.793Z,22.67
2018-12-20T20:30:05.538Z,23.00
2018-12-20T20:32:34.226Z,20.90
2018-12-20T20:35:03.034Z,20.37
2018-12-20T20:37:31.611Z,25.10
2018-12-20T20:40:00.459Z,24.43
2018-12-20T20:42:29.056Z,16.73
2018-12-20T20:44:57.610Z,19.33
2018-12-20T20:47:26.182Z,20.07
2018-12-20T20:49:54.819Z,21.80
2018-12-20T20:52:23.441Z,24.13
2018-12-20T20:54:53.468Z,22.37
2018-12-20T20:57:22.196Z,20.30
2018-12-20T20:59:54.027Z,21.83
2018-12-20T21:02:22.619Z,19.30
2018-12-20T21:04:51.304Z,31.40
2018-12-20T21:07:20.046Z,21.53
2018-12-20T21:09:48.695Z,23.43
2018-12-20T21:12:22.725Z,16.63
2018-12-20T21:14:52.295Z,23.27
2018-12-20T21:17:19.239Z,22.80
2018-12-20T21:19:50.221Z,17.90
2018-12-20T21:22:33.680Z,15.17
2018-12-20T21:25:02.338Z,19.27
2018-12-20T21:27:57.936Z,18.30
2018-12-20T21:30:43.569Z,20.53
2018-12-20T21:33:26.516Z,17.27
2018-12-20T21:36:35.964Z,20.57
2018-12-20T21:41:52.168Z,24.77
2018-12-20T21:44:38.514Z,16.27
2018-12-20T21:50:51.722Z,21.63
2018-12-20T21:53:22.251Z,19.53
2018-12-20T21:55:55.037Z,17.70
2018-12-20T21:58:39.239Z,14.87
2018-12-20T22:01:09.398Z,11.50
2018-12-20T22:03:41.954Z,20.57
2018-12-20T22:06:12.257Z,20.27
2018-12-20T22:08:44.094Z,17.70
2018-12-20T22:11:18.910Z,14.70
2018-12-20T22:13:48.754Z,13.33
2018-12-20T22:16:18.446Z,16.50
2018-12-20T22:18:48.494Z,15.20
2018-12-20T22:21:18.955Z,20.20
2018-12-20T22:23:50.022Z,19.33
2018-12-20T22:26:22.114Z,16.00
2018-12-20T22:28:51.869Z,17.50
2018-12-20T22:31:20.442Z,19.40
2018-12-20T22:33:49.511Z,20.60
2018-12-20T22:36:18.161Z,19.20
2018-12-20T22:38:53.094Z,13.67
2018-12-20T22:41:21.813Z,15.20
2018-12-20T22:43:51.091Z,14.37
2018-12-20T22:46:21.519Z,21.07
2018-12-20T22:48:50.732Z,16.17
2018-12-20T22:51:21.629Z,11.80
2018-12-20T22:53:53.113Z,12.73
2018-12-20T22:56:22.384Z,13.27
2018-12-20T22:58:50.982Z,11.33
2018-12-20T23:01:20.037Z,13.63
2018-12-20T23:03:48.673Z,17.03
2018-12-20T23:06:17.378Z,13.73
2018-12-20T23:08:45.907Z,17.70
2018-12-20T23:11:14.490Z,11.40
2018-12-20T23:13:43.164Z,12.03
2018-12-20T23:16:11.774Z,12.07
2018-12-20T23:34:01.139Z,16.10
2018-12-20T23:36:46.173Z,14.80
2018-12-20T23:39:19.462Z,9.17
2018-12-20T23:45:52.088Z,10.97
2018-12-20T23:48:27.066Z,6.00
2018-12-20T23:50:59.953Z,9.20
2018-12-20T23:53:41.422Z,7.63
2018-12-20T23:56:13.989Z,12.73
2018-12-20T23:58:55.206Z,5.30
